Latest Weather Observations for Geelong Racecourse

IDV60901

Issued at 4:15 pm EDT Tuesday 21 October 2014 (issued every 10 minutes, with the page automatically refreshed every 10 minutes)

About weather observations | Map of Melbourne area stations | Latest observations for Melbourne area | Other Formats
Station Details ID: 087184 Name: GEELONG RACECOURSE Lat: -38.17 Lon: 144.38 Height: 12.9 m
Data from the previous 72 hours. | See also: Recent months at Geelong Racecourse
Date/Time
EDT
Tmp

°C
App
Tmp
°C
Dew
Point
°C
Rel
Hum
%
Delta-T

°C
Wind Press
QNH
hPa
Press
MSL
hPa
Rain
since
9 am
mm
Dir
 
Spd
km/h
Gust
km/h
Spd
kts
Gust
kts
21/04:00pm 25.6 23.6 10.2 38 8.5 ENE 11 19 6 10 1022.7 1022.7 0.0
21/03:30pm 25.5 23.9 10.1 38 8.5 E 9 17 5 9 1023.2 1023.2 0.0
21/03:00pm 24.8 22.7 9.9 39 8.2 ENE 11 19 6 10 1023.6 1023.6 0.0
21/02:30pm 24.7 23.1 10.2 40 8.0 ENE 9 15 5 8 1024.2 1024.2 0.0
21/02:00pm 23.6 21.5 9.9 42 7.5 NE 11 17 6 9 1024.8 1024.8 0.0
21/01:30pm 22.4 20.6 9.6 44 6.9 ENE 9 19 5 10 1025.1 1025.1 0.0
21/01:00pm 21.2 18.7 9.8 48 6.1 NE 13 19 7 10 1025.8 1025.8 0.0
21/12:30pm 20.1 17.5 9.4 50 5.7 ENE 13 20 7 11 1026.1 1026.1 0.0
21/12:00pm 18.9 15.9 9.4 54 5.0 ENE 15 20 8 11 1026.2 1026.2 0.0
21/11:30am 17.4 14.6 8.5 56 4.6 ENE 13 24 7 13 1026.7 1026.7 0.0
21/11:00am 16.2 12.7 8.9 62 3.7 ENE 17 26 9 14 1026.9 1026.9 0.0
21/10:30am 15.4 12.8 9.5 68 3.1 NE 13 20 7 11 1027.1 1027.1 0.0
21/10:00am 14.8 12.0 10.0 73 2.5 NE 15 19 8 10 1027.3 1027.3 0.0
21/09:30am 14.6 12.8 10.8 78 2.0 NE 11 17 6 9 1027.3 1027.3 0.0
21/09:00am 14.2 12.2 10.2 77 2.1 NE 11 15 6 8 1027.4 1027.4 0.0
21/08:30am 13.7 12.5 10.3 80 1.8 E 7 11 4 6 1027.2 1027.2 0.0
21/08:00am 12.5 11.7 11.2 92 0.7 E 6 7 3 4 1027.0 1027.0 0.0
21/07:30am 10.1 9.1 9.0 93 0.5 SSE 4 6 2 3 1026.8 1026.8 0.0
21/07:00am 8.1 6.3 7.0 93 0.5 S 6 6 3 3 1026.6 1026.6 0.0
21/06:30am 8.0 6.1 6.8 92 0.6 S 6 6 3 3 1026.4 1026.4 0.0
21/06:00am 8.2 6.4 7.0 92 0.6 S 6 7 3 4 1026.2 1026.2 0.0
21/05:30am 9.2 7.9 7.8 91 0.7 ESE 4 7 2 4 1026.2 1026.2 0.0
21/05:00am 9.5 7.9 7.8 89 0.8 SE 6 9 3 5 1026.3 1026.3 0.0
21/04:30am 10.1 8.5 7.9 86 1.1 ESE 6 9 3 5 1026.3 1026.3 0.0
21/04:00am 10.4 8.6 7.8 84 1.2 SE 7 15 4 8 1026.4 1026.4 0.0
21/03:30am 10.3 8.4 7.7 84 1.2 SE 7 11 4 6 1026.8 1026.8 0.0
21/03:00am 10.2 8.5 7.6 84 1.2 SE 6 7 3 4 1027.0 1027.0 0.0
21/02:30am 10.8 8.6 7.7 81 1.5 SSE 9 13 5 7 1027.3 1027.3 0.0
21/02:00am 10.9 8.3 7.6 80 1.6 SE 11 15 6 8 1027.5 1027.5 0.0
21/01:30am 9.9 7.9 7.2 83 1.3 SSE 7 11 4 6 1027.9 1027.9 0.0
21/01:00am 10.2 8.2 7.1 81 1.5 SSE 7 11 4 6 1028.5 1028.5 0.0
21/12:30am 10.8 8.8 7.1 78 1.8 SSE 7 13 4 7 1028.6 1028.6 0.0
21/12:00am 11.1 9.1 7.0 76 1.9 SE 7 11 4 6 1028.8 1028.8 0.0
 
Date/Time
EDT
Tmp

°C
App
Tmp
°C
Dew
Point
°C
Rel
Hum
%
Delta-T

°C
Wind Press
QNH
hPa
Press
MSL
hPa
Rain
since
9 am
mm
Dir
 
Spd
km/h
Gust
km/h
Spd
kts
Gust
kts
20/11:30pm 11.4 9.0 6.9 74 2.1 SE 9 15 5 8 1029.0 1029.0 0.0
20/11:00pm 12.0 9.2 7.1 72 2.3 SE 11 19 6 10 1029.2 1029.2 0.0
20/10:30pm 12.3 9.6 7.2 71 2.5 SE 11 19 6 10 1029.2 1029.2 0.0
20/10:00pm 12.6 9.6 7.5 71 2.5 SE 13 19 7 10 1029.1 1029.1 0.0
20/09:30pm 12.9 10.3 7.8 71 2.5 SE 11 19 6 10 1029.1 1029.1 0.0
20/09:00pm 13.3 10.1 8.4 72 2.4 SE 15 24 8 13 1028.9 1028.9 0.0
20/08:30pm 13.6 10.1 8.7 72 2.5 SE 17 28 9 15 1028.5 1028.5 0.0
20/08:00pm 13.8 9.7 8.8 72 2.5 SE 20 35 11 19 1028.4 1028.4 0.0
20/07:30pm 14.2 9.8 9.0 71 2.6 SE 22 32 12 17 1028.3 1028.3 0.0
20/07:00pm 14.6 9.8 9.0 69 2.8 SSE 24 37 13 20 1028.3 1028.3 0.0
20/06:30pm 14.9 8.9 8.6 66 3.2 SSE 30 44 16 24 1028.3 1028.3 0.0
20/06:00pm 15.4 9.0 8.4 63 3.5 SSE 32 43 17 23 1028.5 1028.5 0.0
20/05:30pm 15.9 10.2 8.4 61 3.8 SSE 28 44 15 24 1028.5 1028.5 0.0
20/05:00pm 16.1 10.3 8.1 59 4.0 SSE 28 41 15 22 1028.6 1028.6 0.0
20/04:30pm 16.1 10.3 8.1 59 4.0 SSE 28 44 15 24 1028.8 1028.8 0.0
20/04:00pm 16.3 10.6 8.3 59 4.0 SSE 28 41 15 22 1028.8 1028.8 0.0
20/03:30pm 16.2 10.3 7.7 57 4.3 SSE 28 39 15 21 1029.2 1029.2 0.0
20/03:00pm 16.2 10.5 6.9 54 4.6 SSE 26 41 14 22 1029.4 1029.4 0.0
20/02:30pm 16.2 10.5 6.9 54 4.6 SSE 26 41 14 22 1029.6 1029.6 0.0
20/02:00pm 15.6 9.8 6.3 54 4.5 SSE 26 37 14 20 1029.9 1029.9 0.0
20/01:30pm 15.8 10.8 4.8 48 5.2 SSE 20 32 11 17 1030.2 1030.2 0.0
20/01:00pm 15.9 11.0 4.9 48 5.2 SSE 20 33 11 18 1030.3 1030.3 0.0
20/12:30pm 15.2 9.3 4.0 47 5.2 SSE 24 35 13 19 1030.5 1030.5 0.0
20/12:00pm 15.0 9.3 2.9 44 5.4 SE 22 30 12 16 1031.0 1031.0 0.0
20/11:30am 14.7 9.0 2.6 44 5.4 SE 22 35 12 19 1031.2 1031.2 0.0
20/11:00am 14.5 9.1 2.4 44 5.3 SE 20 32 11 17 1031.4 1031.4 0.0
20/10:30am 14.4 8.3 2.9 46 5.1 SE 24 35 13 19 1031.4 1031.4 0.0
20/10:00am 14.3 8.3 3.5 48 4.8 SSE 24 39 13 21 1031.2 1031.2 0.0
20/09:30am 14.0 8.6 2.3 45 5.1 ESE 20 33 11 18 1031.4 1031.4 0.0
20/09:00am 13.3 7.9 2.2 47 4.8 SE 20 32 11 17 1031.3 1031.3 0.0
20/08:30am 13.0 8.6 2.6 49 4.6 ESE 15 24 8 13 1031.0 1031.0 0.0
20/08:00am 12.0 7.6 2.5 52 4.1 ESE 15 26 8 14 1030.9 1030.9 0.0
20/07:30am 11.4 8.1 2.7 55 3.8 E 9 17 5 9 1030.7 1030.7 0.0
20/07:00am 11.0 7.4 2.8 57 3.5 SE 11 19 6 10 1030.4 1030.4 0.0
20/06:30am 11.3 7.1 3.6 59 3.4 SE 15 24 8 13 1030.1 1030.1 0.0
20/06:00am 11.5 7.8 4.7 63 3.1 SE 13 26 7 14 1029.9 1029.9 0.0
20/05:30am 10.7 7.5 3.0 59 3.3 SE 9 13 5 7 1029.7 1029.7 0.0
20/05:00am 10.8 6.8 2.6 57 3.5 SSE 13 19 7 10 1029.6 1029.6 0.0
20/04:30am 11.2 7.4 4.0 61 3.2 SE 13 20 7 11 1029.3 1029.3 0.0
20/04:00am 11.7 8.2 5.3 65 2.9 SSE 13 22 7 12 1029.3 1029.3 0.0
20/03:30am 10.7 7.9 5.0 68 2.6 SE 9 15 5 8 1029.2 1029.2 0.0
20/03:00am 11.3 8.0 6.2 71 2.4 SSE 13 20 7 11 1029.4 1029.4 0.0
20/02:30am 11.3 8.0 6.6 73 2.2 SSE 13 19 7 10 1029.5 1029.5 0.0
20/02:00am 11.8 7.9 7.3 74 2.2 SSE 17 26 9 14 1029.5 1029.5 0.0
20/01:30am 11.6 8.2 7.5 76 2.0 SSE 15 24 8 13 1029.6 1029.6 0.0
20/01:00am 12.3 8.5 7.4 72 2.4 SSE 17 26 9 14 1029.5 1029.5 0.0
20/12:30am 12.5 8.1 7.6 72 2.4 S 20 33 11 18 1029.5 1029.5 0.0
20/12:00am 12.4 8.7 8.1 75 2.1 S 17 28 9 15 1029.5 1029.5 0.0
 
Date/Time
EDT
Tmp

°C
App
Tmp
°C
Dew
Point
°C
Rel
Hum
%
Delta-T

°C
Wind Press
QNH
hPa
Press
MSL
hPa
Rain
since
9 am
mm
Dir
 
Spd
km/h
Gust
km/h
Spd
kts
Gust
kts
19/11:30pm 12.4 8.4 8.3 76 2.0 S 19 24 10 13 1029.2 1029.2 0.0
19/11:00pm 12.1 8.2 8.8 80 1.6 S 19 32 10 17 1029.2 1029.2 0.0
19/10:30pm 12.1 8.7 10.5 90 0.8 S 19 24 10 13 1029.0 1029.0 0.0
19/10:00pm 12.0 7.3 10.7 92 0.7 S 26 35 14 19 1028.4 1028.4 0.0
19/09:30pm 13.2 10.0 11.9 92 0.7 S 20 30 11 16 1028.2 1028.2 0.0
19/09:00pm 13.5 8.3 11.6 88 1.0 S 30 41 16 22 1027.4 1027.4 0.0
19/08:30pm 14.2 10.8 11.2 82 1.6 SSW 20 35 11 19 1026.6 1026.6 0.0
19/08:00pm 14.3 10.9 11.3 82 1.6 SSW 20 30 11 16 1025.8 1025.8 0.0
19/07:30pm 14.4 11.4 10.8 79 1.9 SSW 17 24 9 13 1024.9 1024.9 0.0
19/07:00pm 14.8 10.1 10.6 76 2.2 SSW 26 37 14 20 1024.2 1024.2 0.0
19/06:30pm 15.4 10.8 11.2 76 2.2 SSW 26 37 14 20 1023.6 1023.6 0.0
19/06:00pm 15.4 9.8 11.6 78 2.0 SSW 32 41 17 22 1022.9 1022.9 0.0
19/05:30pm 16.4 11.6 11.6 73 2.6 SSW 28 39 15 21 1022.7 1022.7 0.0
19/05:00pm 16.0 10.9 12.0 77 2.2 S 30 41 16 22 1021.6 1021.6 0.0
19/04:30pm 15.9 10.9 12.1 78 2.1 S 30 43 16 23 1021.3 1021.3 0.0
19/04:00pm 16.6 12.2 12.8 78 2.1 S 28 35 15 19 1020.6 1020.6 0.0
19/03:30pm 16.8 11.9 12.5 76 2.4 S 30 43 16 23 1020.2 1020.2 0.0
19/03:00pm 17.2 11.8 12.3 73 2.7 S 32 41 17 22 1020.0 1020.0 0.0
19/02:30pm 18.6 14.0 12.4 67 3.5 S 28 39 15 21 1019.8 1019.8 0.0
19/02:00pm 19.5 14.7 12.8 65 3.8 SSE 30 39 16 21 1019.3 1019.3 0.0
19/01:42pm 23.2 20.0 11.9 49 6.4 S 20 28 11 15 1019.5 1019.5 0.0
19/01:30pm 29.1 23.3 2.4 18 13.2 WNW 22 33 12 18 1018.7 1018.7 0.0
19/01:00pm 28.8 22.8 1.3 17 13.3 WNW 22 33 12 18 1018.6 1018.6 0.0
19/12:30pm 28.3 21.9 0.9 17 13.1 NW 24 41 13 22 1018.4 1018.4 0.0
19/12:00pm 28.4 22.5 1.8 18 12.9 NNW 22 37 12 20 1018.6 1018.6 0.0
19/11:30am 27.5 22.2 3.2 21 12.1 NNW 20 30 11 16 1019.0 1019.0 0.0
19/11:00am 25.9 22.2 4.4 25 10.8 N 13 22 7 12 1019.5 1019.5 0.0
19/10:30am 23.4 20.6 5.3 31 9.1 N 9 13 5 7 1019.5 1019.5 0.0
19/10:00am 22.0 18.5 5.4 34 8.2 NNE 13 19 7 10 1019.9 1019.9 0.0
19/09:30am 21.6 18.8 5.1 34 8.2 NNE 9 11 5 6 1020.0 1020.0 0.0
19/09:00am 20.9 18.7 5.3 36 7.7 N 6 11 3 6 1020.3 1020.3 0.0
19/08:30am 20.1 17.9 5.4 38 7.2 NNE 6 9 3 5 1020.3 1020.3 0.0
19/08:00am 19.4 17.0 5.1 39 6.9 N 7 11 4 6 1020.1 1020.1 0.0
19/07:30am 19.3 16.1 5.0 39 6.9 NNE 11 15 6 8 1019.8 1019.8 0.0
19/07:00am 19.3 17.0 4.6 38 7.1 NE 6 9 3 5 1019.5 1019.5 0.0
19/06:30am 19.6 16.8 3.3 34 7.7 N 7 15 4 8 1018.8 1018.8 0.0
19/06:00am 20.2 16.3 3.4 33 7.9 N 13 20 7 11 1018.5 1018.5 0.0
19/05:30am 20.4 16.5 3.6 33 8.0 N 13 20 7 11 1018.6 1018.6 0.0
19/05:00am 20.8 15.7 4.0 33 8.1 N 20 32 11 17 1018.6 1018.6 0.0
19/04:30am 20.8 15.4 4.4 34 8.0 N 22 32 12 17 1018.6 1018.6 0.0
19/04:00am 21.1 15.6 4.2 33 8.2 N 22 33 12 18 1018.6 1018.6 0.0
19/03:30am 21.3 15.9 4.4 33 8.2 N 22 32 12 17 1018.8 1018.8 0.0
19/03:00am 21.4 16.6 4.5 33 8.2 N 19 30 10 16 1018.9 1018.9 0.0
19/02:30am 21.8 16.8 4.4 32 8.5 N 20 35 11 19 1019.0 1019.0 0.0
19/02:00am 18.9 16.1 7.0 46 6.0 NE 11 19 6 10 1019.5 1019.5 0.0
19/01:30am 18.4 15.0 7.8 50 5.4 NE 15 22 8 12 1019.7 1019.7 0.0
19/01:00am 18.4 15.4 7.8 50 5.4 NE 13 20 7 11 1020.0 1020.0 0.0
19/12:30am 18.2 14.5 7.9 51 5.3 NE 17 22 9 12 1020.1 1020.1 0.0
19/12:00am 18.2 14.6 8.2 52 5.1 NE 17 24 9 13 1020.2 1020.2 0.0
 
Date/Time
EDT
Tmp

°C
App
Tmp
°C
Dew
Point
°C
Rel
Hum
%
Delta-T

°C
Wind Press
QNH
hPa
Press
MSL
hPa
Rain
since
9 am
mm
Dir
 
Spd
km/h
Gust
km/h
Spd
kts
Gust
kts
18/11:30pm 18.3 14.6 8.0 51 5.3 NE 17 26 9 14 1020.3 1020.3 0.0
18/11:00pm 18.1 14.7 7.8 51 5.2 NE 15 22 8 12 1020.5 1020.5 0.0
18/10:30pm 17.8 14.6 8.6 55 4.7 NE 15 22 8 12 1020.9 1020.9 0.0
18/10:00pm 18.1 15.6 8.4 53 5.0 NE 11 15 6 8 1021.3 1021.3 0.0
18/09:30pm 19.0 15.9 7.4 47 5.9 NNE 13 19 7 10 1021.6 1021.6 0.0
18/09:00pm 20.7 16.5 5.9 38 7.4 NNE 17 22 9 12 1021.6 1021.6 0.0
18/08:30pm 21.2 17.1 6.3 38 7.5 NNE 17 26 9 14 1021.4 1021.4 0.0
18/08:00pm 21.9 18.3 6.6 37 7.8 N 15 22 8 12 1021.5 1021.5 0.0
18/07:30pm 22.6 19.3 6.4 35 8.3 N 13 24 7 13 1021.1 1021.1 0.0
18/07:00pm 23.3 19.9 6.1 33 8.7 N 13 20 7 11 1021.1 1021.1 0.0
18/06:30pm 24.4 21.0 5.7 30 9.5 N 13 20 7 11 1021.1 1021.1 0.0
18/06:00pm 24.9 20.5 4.6 27 10.1 N 17 28 9 15 1021.1 1021.1 0.0
18/05:30pm 25.4 22.2 5.1 27 10.3 NW 11 19 6 10 1020.8 1020.8 0.0
18/05:00pm 24.7 22.3 6.9 32 9.2 NNE 9 13 5 7 1020.7 1020.7 0.0
18/04:30pm 24.9 21.9 6.1 30 9.7 N 11 19 6 10 1020.7 1020.7 0.0

Latest Capital City Observations: Canberra | Sydney | Melbourne | Brisbane | Adelaide | Perth | Hobart | Darwin

Other Formats:

Comma delimited format used in spreadsheet applications
http://www.bom.gov.au/fwo/IDV60901/IDV60901.94857.axf

JavaScript Object Notation format (JSON) in row-major order
http://www.bom.gov.au/fwo/IDV60901/IDV60901.94857.json